createdAt,value
2018-12-25T00:01:37.454Z,10.63
2018-12-25T00:06:42.187Z,14.70
2018-12-25T00:11:46.738Z,14.37
2018-12-25T00:16:51.419Z,14.47
2018-12-25T00:21:57.119Z,10.47
2018-12-25T00:27:02.046Z,11.17
2018-12-25T00:32:06.490Z,12.10
2018-12-25T00:37:10.995Z,15.10
2018-12-25T00:42:15.718Z,13.00
2018-12-25T00:47:20.210Z,11.13
2018-12-25T00:52:24.662Z,14.07
2018-12-25T00:57:29.158Z,10.87
2018-12-25T01:02:33.981Z,15.40
2018-12-25T01:07:38.477Z,11.07
2018-12-25T01:12:43.215Z,16.23
2018-12-25T01:17:47.658Z,9.63
2018-12-25T01:22:52.155Z,11.20
2018-12-25T01:27:56.950Z,13.43
2018-12-25T01:33:01.451Z,11.87
2018-12-25T01:38:06.116Z,11.80
2018-12-25T01:43:10.618Z,12.33
2018-12-25T01:48:15.139Z,13.30
2018-12-25T01:53:19.758Z,10.90
2018-12-25T01:58:24.325Z,14.10
2018-12-25T02:03:28.955Z,13.07
2018-12-25T02:08:33.450Z,13.07
2018-12-25T02:13:38.047Z,13.10
2018-12-25T02:18:42.552Z,11.93
2018-12-25T02:23:47.146Z,13.17
2018-12-25T02:28:51.594Z,12.23
2018-12-25T02:33:56.106Z,8.10
2018-12-25T02:39:00.708Z,13.40
2018-12-25T02:44:05.367Z,9.10
2018-12-25T02:49:09.836Z,9.90
2018-12-25T02:54:15.441Z,11.60
2018-12-25T02:59:19.883Z,12.27
2018-12-25T03:04:24.338Z,10.93
2018-12-25T03:09:29.205Z,12.57
2018-12-25T03:14:33.894Z,11.07
2018-12-25T03:19:38.497Z,10.53
2018-12-25T03:24:43.180Z,10.87
2018-12-25T03:29:47.743Z,11.80
2018-12-25T03:34:52.259Z,12.10
2018-12-25T03:39:56.737Z,10.83
2018-12-25T03:45:01.453Z,10.73
2018-12-25T03:50:10.906Z,12.27
2018-12-25T03:55:13.776Z,10.07
2018-12-25T04:00:18.561Z,11.43
2018-12-25T04:05:23.027Z,13.00
2018-12-25T04:10:27.710Z,12.13
2018-12-25T04:15:32.343Z,9.57
2018-12-25T04:20:36.834Z,11.67
2018-12-25T04:25:43.302Z,12.63
2018-12-25T04:30:47.779Z,15.40
2018-12-25T04:35:52.371Z,10.83
2018-12-25T04:40:56.885Z,8.77
2018-12-25T04:46:01.523Z,11.27
2018-12-25T04:51:06.231Z,12.57
2018-12-25T04:56:10.674Z,8.97
2018-12-25T05:01:15.458Z,13.17
2018-12-25T05:06:20.653Z,8.10
2018-12-25T05:11:25.151Z,11.73
2018-12-25T05:16:29.613Z,14.97
2018-12-25T05:21:34.230Z,10.10
2018-12-25T05:26:38.766Z,15.73
2018-12-25T05:31:43.280Z,11.60
2018-12-25T05:36:47.923Z,13.37
2018-12-25T05:41:52.490Z,12.57
2018-12-25T05:46:57.017Z,10.17
2018-12-25T05:52:01.692Z,12.27
2018-12-25T05:57:06.210Z,10.93
2018-12-25T06:02:10.754Z,9.83
2018-12-25T06:07:15.333Z,14.23
2018-12-25T06:12:19.895Z,13.13
2018-12-25T06:17:24.374Z,11.47
2018-12-25T06:22:28.956Z,12.13
2018-12-25T06:27:33.396Z,16.13
2018-12-25T06:32:37.880Z,10.30
2018-12-25T06:37:42.608Z,11.97
2018-12-25T06:42:47.092Z,11.90
2018-12-25T06:47:51.571Z,12.93
2018-12-25T06:52:56.202Z,11.00
2018-12-25T06:58:00.735Z,13.07
2018-12-25T07:03:05.321Z,16.13
2018-12-25T07:08:09.796Z,12.27
2018-12-25T07:13:14.378Z,13.00
2018-12-25T07:18:18.872Z,13.63
2018-12-25T07:23:23.503Z,12.10
2018-12-25T07:28:28.191Z,9.43
2018-12-25T07:33:32.841Z,14.57
2018-12-25T07:38:38.411Z,7.23
2018-12-25T07:43:43.008Z,8.23
2018-12-25T07:48:48.132Z,6.47
2018-12-25T07:53:52.574Z,8.33
2018-12-25T07:58:57.148Z,8.50
2018-12-25T08:04:01.780Z,9.63
2018-12-25T08:09:07.776Z,10.50
2018-12-25T08:14:12.430Z,15.47
2018-12-25T08:19:17.022Z,9.90
2018-12-25T08:24:21.679Z,14.77
2018-12-25T08:29:26.207Z,13.47
2018-12-25T08:34:30.726Z,11.67
2018-12-25T08:39:35.546Z,13.87
2018-12-25T08:44:40.474Z,13.73
2018-12-25T08:49:45.014Z,13.73
2018-12-25T08:54:49.914Z,15.27
2018-12-25T08:59:54.380Z,21.77
2018-12-25T09:04:58.886Z,23.67
2018-12-25T09:10:03.595Z,19.53
2018-12-25T09:15:08.417Z,24.90
2018-12-25T09:20:13.022Z,22.63
2018-12-25T09:25:17.604Z,17.10
2018-12-25T09:30:22.246Z,17.47
2018-12-25T09:35:26.822Z,15.57
2018-12-25T09:40:31.520Z,15.10
2018-12-25T09:45:36.327Z,17.27
2018-12-25T09:50:41.095Z,17.67
2018-12-25T09:55:45.974Z,18.17
2018-12-25T10:00:50.509Z,20.53
2018-12-25T10:05:55.288Z,15.57
2018-12-25T10:10:59.863Z,21.27
2018-12-25T10:16:04.414Z,20.77
2018-12-25T10:21:09.087Z,13.87
2018-12-25T10:26:13.870Z,14.77
2018-12-25T10:31:18.582Z,13.30
2018-12-25T10:36:23.222Z,13.60
2018-12-25T10:41:27.666Z,13.87
2018-12-25T10:46:33.182Z,10.93
2018-12-25T10:51:38.002Z,9.57
2018-12-25T10:56:42.564Z,12.80
2018-12-25T11:01:47.221Z,9.30
2018-12-25T11:06:51.769Z,11.40
2018-12-25T11:11:56.378Z,9.53
2018-12-25T11:17:00.928Z,11.87
2018-12-25T11:22:05.461Z,8.03
2018-12-25T11:27:09.903Z,8.97
2018-12-25T11:32:14.471Z,9.03
2018-12-25T11:37:18.963Z,10.57
2018-12-25T11:42:23.538Z,12.13
2018-12-25T11:47:28.051Z,7.67
2018-12-25T11:52:33.194Z,9.43
2018-12-25T11:57:37.648Z,12.17
2018-12-25T12:02:42.292Z,12.60
2018-12-25T12:07:46.858Z,12.77
2018-12-25T12:12:51.539Z,11.77
2018-12-25T12:17:56.006Z,16.63
2018-12-25T12:23:00.662Z,11.80
2018-12-25T12:28:06.790Z,15.30
2018-12-25T12:33:11.319Z,14.80
2018-12-25T12:38:15.812Z,15.73
2018-12-25T12:43:20.389Z,10.73
2018-12-25T12:48:24.995Z,12.80
2018-12-25T12:53:29.606Z,14.53
2018-12-25T12:58:34.291Z,9.47
2018-12-25T13:03:39.150Z,10.43
2018-12-25T13:08:43.917Z,9.50
2018-12-25T13:13:48.388Z,17.27
2018-12-25T13:18:52.882Z,9.47
2018-12-25T13:23:57.548Z,8.23
2018-12-25T13:29:02.104Z,14.00
2018-12-25T13:34:06.771Z,12.23
2018-12-25T13:39:16.215Z,10.50
2018-12-25T13:44:20.974Z,10.43
2018-12-25T13:49:25.567Z,10.10
2018-12-25T13:54:30.063Z,15.97
2018-12-25T13:59:34.608Z,13.93
2018-12-25T14:04:39.251Z,8.27
2018-12-25T14:09:43.764Z,8.07
2018-12-25T14:14:48.904Z,9.57
2018-12-25T14:19:54.918Z,9.50
2018-12-25T14:24:59.575Z,9.57
2018-12-25T14:30:04.621Z,12.20
2018-12-25T14:35:09.243Z,9.47
2018-12-25T14:40:14.252Z,9.43
2018-12-25T14:45:18.948Z,12.17
2018-12-25T14:50:23.540Z,11.13
2018-12-25T14:55:28.271Z,9.17
2018-12-25T15:00:33.166Z,10.07
2018-12-25T15:05:37.721Z,10.47
2018-12-25T15:10:45.967Z,12.13
2018-12-25T15:15:51.077Z,13.37
2018-12-25T15:20:55.855Z,13.23
2018-12-25T15:26:00.583Z,13.90
2018-12-25T15:31:05.743Z,13.77
2018-12-25T15:36:10.553Z,12.53
2018-12-25T15:41:15.080Z,9.63
2018-12-25T15:46:19.722Z,9.63
2018-12-25T15:51:24.243Z,13.63
2018-12-25T15:56:29.092Z,13.63
2018-12-25T16:01:33.759Z,13.93
2018-12-25T16:06:38.459Z,14.23
2018-12-25T16:11:42.955Z,11.50
2018-12-25T16:16:47.527Z,12.10
2018-12-25T16:21:52.367Z,8.23
2018-12-25T16:26:58.236Z,13.63
2018-12-25T16:32:02.950Z,11.67
2018-12-25T16:37:07.519Z,12.03
2018-12-25T16:42:12.430Z,13.53
2018-12-25T16:47:17.308Z,13.03
2018-12-25T16:52:24.720Z,13.90
2018-12-25T16:57:29.448Z,12.30
2018-12-25T17:02:34.058Z,13.13
2018-12-25T17:07:38.754Z,15.17
2018-12-25T17:12:43.258Z,12.07
2018-12-25T17:17:48.295Z,14.20
2018-12-25T17:22:52.837Z,10.13
2018-12-25T17:27:57.553Z,11.80
2018-12-25T17:33:25.379Z,11.73
2018-12-25T17:38:30.014Z,11.57
2018-12-25T17:43:34.522Z,11.30
2018-12-25T17:48:39.188Z,10.07
2018-12-25T17:53:43.626Z,13.73
2018-12-25T17:58:48.274Z,11.13
2018-12-25T18:03:52.718Z,12.27
2018-12-25T18:08:57.372Z,9.90
2018-12-25T18:14:01.895Z,13.30
2018-12-25T18:19:06.382Z,12.57
2018-12-25T18:24:19.172Z,12.60
2018-12-25T18:29:24.268Z,11.90
2018-12-25T18:34:29.418Z,13.80
2018-12-25T18:39:34.038Z,10.87
2018-12-25T18:44:38.726Z,12.17
2018-12-25T18:49:43.397Z,13.37
2018-12-25T18:54:47.903Z,11.90
2018-12-25T18:59:52.994Z,16.50
2018-12-25T19:04:57.667Z,16.13
2018-12-25T19:10:02.156Z,12.53
2018-12-25T19:15:21.278Z,14.70
2018-12-25T19:20:25.959Z,12.90
2018-12-25T19:25:30.528Z,16.20
2018-12-25T19:30:37.483Z,16.23
2018-12-25T19:35:42.554Z,16.20
2018-12-25T19:40:47.354Z,13.33
2018-12-25T19:45:52.985Z,18.07
2018-12-25T19:50:57.540Z,13.10
2018-12-25T19:56:02.374Z,18.43
2018-12-25T20:01:07.202Z,15.83
2018-12-25T20:06:55.074Z,15.60
2018-12-25T20:12:31.589Z,12.07
2018-12-25T20:18:28.606Z,16.50
2018-12-25T20:24:10.347Z,15.83
2018-12-25T20:30:01.227Z,17.03
2018-12-25T20:35:43.588Z,17.40
2018-12-25T20:41:41.678Z,14.20
2018-12-25T20:47:46.497Z,20.67
2018-12-25T20:53:52.293Z,23.37
2018-12-25T20:59:24.912Z,16.47
2018-12-25T21:05:05.962Z,18.47
2018-12-25T21:10:55.146Z,15.53
2018-12-25T21:16:56.563Z,18.63
2018-12-25T21:22:44.239Z,16.73
2018-12-25T21:27:47.756Z,15.90
2018-12-25T21:32:52.561Z,16.63
2018-12-25T21:37:58.486Z,24.70
2018-12-25T21:43:03.114Z,15.80
2018-12-25T21:48:09.194Z,17.20
2018-12-25T21:53:13.913Z,19.70
2018-12-25T21:58:18.860Z,20.00
2018-12-25T22:03:23.562Z,18.83
2018-12-25T22:08:28.176Z,25.13
2018-12-25T22:13:32.807Z,29.13
2018-12-25T22:18:37.594Z,28.37
2018-12-25T22:23:42.312Z,29.87
2018-12-25T22:28:47.096Z,31.77
2018-12-25T22:33:51.670Z,30.50
2018-12-25T22:38:56.549Z,31.90
2018-12-25T22:44:01.294Z,28.80
2018-12-25T22:49:07.187Z,27.73
2018-12-25T22:54:11.900Z,36.87
2018-12-25T22:59:16.454Z,31.67
2018-12-25T23:04:21.434Z,30.63
2018-12-25T23:09:26.128Z,23.87
2018-12-25T23:14:30.751Z,31.27
2018-12-25T23:19:35.373Z,31.93
2018-12-25T23:24:39.845Z,23.47
2018-12-25T23:29:44.293Z,19.97
2018-12-25T23:34:48.873Z,23.07
2018-12-25T23:39:53.893Z,31.40
2018-12-25T23:44:58.599Z,27.87
2018-12-25T23:50:03.420Z,25.57
2018-12-25T23:55:08.124Z,33.83
